Time;durP1;ratioP1;P1;durP2;ratioP2;P2;SDS_P1;SDS_P2;PMS_P1;PMS_P2;Temp;Humidity;BMP_temperature;BMP_pressure;BME280_temperature;BME280_humidity;BME280_pressure;Samples;Min_cycle;Max_cycle;Signal;HPM_P1;HPM_P2
2021/08/25 00:00:21;;;;;;;10.05;4.80;;;;;;;17.74;54.37;101717.34;5033629;28;20061;-61
2021/08/25 00:02:49;;;;;;;11.13;4.88;;;;;;;17.89;54.35;101715.91;5034467;28;20072;-61
2021/08/25 00:05:17;;;;;;;8.40;4.65;;;;;;;17.84;54.04;101716.94;5032733;28;20064;-61
2021/08/25 00:07:44;;;;;;;8.45;4.45;;;;;;;17.89;54.30;101707.53;5033258;28;20060;-63
2021/08/25 00:10:11;;;;;;;14.30;5.30;;;;;;;17.81;54.47;101712.03;5033195;28;20060;-62
2021/08/25 00:12:39;;;;;;;8.60;4.82;;;;;;;17.68;54.90;101717.84;5037679;28;20053;-62
2021/08/25 00:15:08;;;;;;;8.70;4.63;;;;;;;17.60;55.26;101713.97;5054425;28;20057;-62
2021/08/25 00:17:35;;;;;;;9.93;5.00;;;;;;;17.69;55.42;101709.16;5052996;28;20420;-62
2021/08/25 00:20:04;;;;;;;12.32;4.97;;;;;;;17.65;55.16;101705.41;5052793;28;20049;-61
2021/08/25 00:22:31;;;;;;;10.65;4.28;;;;;;;17.68;54.99;101707.53;5053686;28;20053;-62
2021/08/25 00:24:58;;;;;;;11.23;4.43;;;;;;;17.62;55.08;101710.84;5054171;28;20128;-61
2021/08/25 00:27:25;;;;;;;9.15;4.72;;;;;;;17.67;55.01;101714.25;5052756;28;20053;-61
2021/08/25 00:29:54;;;;;;;10.50;4.25;;;;;;;17.90;54.52;101706.41;5052482;28;20067;-62
2021/08/25 00:32:21;;;;;;;8.88;4.30;;;;;;;17.96;54.10;101703.06;5053790;28;20508;-63
2021/08/25 00:34:48;;;;;;;9.43;4.70;;;;;;;17.69;54.64;101698.03;5052606;28;20045;-62
2021/08/25 00:37:16;;;;;;;9.93;4.18;;;;;;;17.61;55.06;101698.06;5053890;28;20045;-62
2021/08/25 00:39:43;;;;;;;12.32;4.45;;;;;;;17.62;55.08;101694.94;5036016;28;20668;-62
2021/08/25 00:42:10;;;;;;;9.50;4.80;;;;;;;17.55;55.26;101688.28;5052151;28;20053;-61
2021/08/25 00:44:37;;;;;;;9.32;4.32;;;;;;;17.76;54.98;101689.13;5053892;28;20045;-61
2021/08/25 00:47:05;;;;;;;9.45;4.80;;;;;;;17.69;54.90;101694.41;5052455;28;20056;-62
2021/08/25 00:49:32;;;;;;;9.23;4.32;;;;;;;17.77;54.73;101687.97;5052571;28;20048;-63
2021/08/25 00:52:00;;;;;;;9.77;4.60;;;;;;;17.47;55.74;101695.50;5053507;28;20057;-62
2021/08/25 00:54:27;;;;;;;12.68;4.95;;;;;;;17.48;55.78;101682.41;5052258;28;20067;-62
2021/08/25 00:56:54;;;;;;;9.45;4.60;;;;;;;17.65;55.30;101688.69;5052078;28;20049;-62
2021/08/25 00:59:21;;;;;;;10.30;4.65;;;;;;;17.63;55.29;101688.22;5053252;28;20060;-61
2021/08/25 01:02:07;;;;;;;9.15;4.18;;;;;;;17.51;55.55;101682.56;5053489;28;20053;-61
2021/08/25 01:04:41;;;;;;;9.13;4.40;;;;;;;17.39;56.25;101688.00;5035027;28;20048;-63
2021/08/25 01:07:10;;;;;;;11.73;4.80;;;;;;;17.43;55.86;101685.34;5052243;28;20488;-62
2021/08/25 01:09:38;;;;;;;8.75;4.88;;;;;;;17.45;55.82;101680.28;5035089;28;20052;-62
2021/08/25 01:12:10;;;;;;;12.02;4.95;;;;;;;17.42;56.12;101675.34;5056980;28;20049;-62
2021/08/25 01:14:41;;;;;;;11.60;4.57;;;;;;;17.42;56.22;101678.97;5039899;28;20060;-62
2021/08/25 01:17:10;;;;;;;10.90;4.80;;;;;;;17.47;55.94;101683.56;5040099;28;20053;-61
2021/08/25 01:19:52;;;;;;;8.32;4.53;;;;;;;17.58;55.96;101684.81;5039966;28;20048;-61
2021/08/25 01:22:20;;;;;;;10.50;4.88;;;;;;;17.52;56.06;101683.38;5038691;28;20053;-61
2021/08/25 01:24:48;;;;;;;9.98;4.60;;;;;;;17.60;55.70;101677.75;5040256;28;20049;-62
2021/08/25 01:27:17;;;;;;;9.05;5.05;;;;;;;17.14;57.02;101674.22;5040012;28;20050;-62
2021/08/25 01:29:46;;;;;;;10.00;4.00;;;;;;;17.07;57.37;101679.47;5038756;28;20736;-61
2021/08/25 01:32:14;;;;;;;11.65;4.95;;;;;;;16.93;57.61;101678.88;5040118;28;20284;-62
2021/08/25 01:34:57;;;;;;;8.23;4.20;;;;;;;16.74;58.52;101673.66;5039280;28;20056;-61
2021/08/25 01:37:28;;;;;;;16.20;5.07;;;;;;;16.82;58.40;101670.88;5038440;28;20049;-61
2021/08/25 01:39:56;;;;;;;12.98;5.25;;;;;;;16.89;58.27;101673.16;5039833;28;20046;-62
2021/08/25 01:42:24;;;;;;;9.93;4.15;;;;;;;16.96;58.04;101675.41;5038594;28;20452;-61
2021/08/25 01:44:52;;;;;;;9.32;4.80;;;;;;;16.84;58.51;101682.47;5039968;28;20048;-61
2021/08/25 01:47:20;;;;;;;11.55;5.57;;;;;;;16.81;58.68;101676.75;5039858;28;20469;-62
2021/08/25 01:49:48;;;;;;;9.85;4.43;;;;;;;17.11;57.92;101684.03;5038488;28;20053;-63
2021/08/25 01:52:16;;;;;;;11.15;4.70;;;;;;;16.79;58.75;101679.06;5039683;28;20053;-62
2021/08/25 01:54:47;;;;;;;8.32;4.38;;;;;;;16.92;58.51;101678.03;5039405;28;20060;-61
2021/08/25 01:57:14;;;;;;;13.63;4.40;;;;;;;16.99;58.29;101675.56;5039325;28;20061;-61
2021/08/25 01:59:42;;;;;;;11.48;4.72;;;;;;;17.00;58.06;101673.59;5039546;28;20064;-61
2021/08/25 02:02:10;;;;;;;9.40;4.82;;;;;;;16.72;58.98;101675.97;5039503;28;20053;-62
2021/08/25 02:04:37;;;;;;;11.05;5.25;;;;;;;16.73;59.39;101669.28;5038442;28;20053;-62
2021/08/25 02:07:05;;;;;;;9.32;4.68;;;;;;;16.88;59.06;101665.13;5039592;28;20042;-61
2021/08/25 02:09:32;;;;;;;11.65;4.50;;;;;;;16.73;59.26;101672.88;5039702;28;20060;-61
2021/08/25 02:11:59;;;;;;;7.32;4.50;;;;;;;16.71;59.43;101658.47;5021634;28;20128;-61
2021/08/25 02:14:27;;;;;;;8.95;4.68;;;;;;;16.79;59.30;101667.91;5057718;28;20059;-62
2021/08/25 02:16:54;;;;;;;9.55;4.57;;;;;;;16.70;59.64;101661.59;5058394;28;20584;-62
2021/08/25 02:19:21;;;;;;;9.55;4.53;;;;;;;16.71;59.83;101658.47;5059437;28;20427;-62
2021/08/25 02:21:49;;;;;;;13.93;5.22;;;;;;;16.20;61.55;101658.53;5059587;28;20061;-61
2021/08/25 02:24:16;;;;;;;12.23;5.38;;;;;;;16.26;61.68;101660.00;5055157;28;20045;-61
2021/08/25 02:26:43;;;;;;;9.93;5.68;;;;;;;16.40;61.34;101657.88;5056438;28;20060;-62
2021/08/25 02:29:10;;;;;;;10.07;5.07;;;;;;;16.51;60.86;101653.59;5056208;28;20036;-61
2021/08/25 02:31:37;;;;;;;7.60;4.45;;;;;;;16.43;61.18;101659.97;5056269;28;20428;-62
2021/08/25 02:34:04;;;;;;;9.82;4.50;;;;;;;16.47;61.19;101661.00;5055917;28;20349;-61
2021/08/25 02:36:32;;;;;;;11.60;4.95;;;;;;;16.26;61.82;101653.63;5056296;28;20060;-62
2021/08/25 02:38:59;;;;;;;12.70;4.75;;;;;;;16.28;62.09;101662.44;5055918;28;20578;-62
2021/08/25 02:41:27;;;;;;;10.95;4.88;;;;;;;16.29;62.27;101662.13;5056275;28;20048;-61
2021/08/25 02:43:54;;;;;;;12.70;5.28;;;;;;;16.35;61.86;101651.66;5055867;28;20049;-62
2021/08/25 02:46:21;;;;;;;11.35;5.63;;;;;;;16.42;61.83;101654.75;5056024;28;20053;-62
2021/08/25 02:48:49;;;;;;;10.35;4.78;;;;;;;16.40;61.77;101657.88;5054759;28;20041;-62
2021/08/25 02:51:16;;;;;;;9.02;4.55;;;;;;;16.54;61.53;101647.41;5055748;28;20048;-61
2021/08/25 02:53:43;;;;;;;10.13;4.97;;;;;;;16.43;61.54;101650.81;5055295;28;20056;-61
2021/08/25 02:56:11;;;;;;;8.75;4.90;;;;;;;16.39;61.94;101650.66;5056041;28;20048;-62
2021/08/25 02:58:39;;;;;;;10.00;5.03;;;;;;;16.18;62.65;101652.47;5037409;28;20053;-62
2021/08/25 03:01:07;;;;;;;10.20;5.32;;;;;;;16.33;62.20;101651.97;5054273;28;20060;-62
2021/08/25 03:03:35;;;;;;;11.98;4.30;;;;;;;16.22;62.52;101649.84;5055337;28;20060;-61
2021/08/25 03:06:03;;;;;;;11.15;5.10;;;;;;;16.27;62.59;101653.28;5055590;28;20056;-69
2021/08/25 03:08:30;;;;;;;10.88;4.90;;;;;;;16.32;62.44;101653.09;5053746;28;20396;-68
2021/08/25 03:10:57;;;;;;;11.15;4.72;;;;;;;16.46;61.99;101658.47;5037666;28;20045;-68
2021/08/25 03:13:24;;;;;;;8.25;4.72;;;;;;;16.41;62.13;101650.31;5045374;28;20076;-69
2021/08/25 03:15:51;;;;;;;9.43;5.07;;;;;;;16.30;62.50;101649.03;5034201;28;20524;-62
2021/08/25 03:18:19;;;;;;;12.18;5.00;;;;;;;16.42;62.12;101647.19;5035438;28;20049;-62
2021/08/25 03:20:46;;;;;;;13.30;4.80;;;;;;;16.44;62.15;101644.13;5035733;28;20493;-62
2021/08/25 03:23:13;;;;;;;10.63;5.20;;;;;;;16.19;63.02;101653.28;5035070;28;20054;-70
2021/08/25 03:25:40;;;;;;;10.50;5.22;;;;;;;16.46;62.22;101650.13;5035568;28;20065;-69
2021/08/25 03:28:08;;;;;;;15.60;5.40;;;;;;;16.17;63.15;101656.41;5035399;28;20053;-67
2021/08/25 03:30:35;;;;;;;9.48;5.15;;;;;;;16.22;62.98;101645.13;5035302;28;20072;-69
2021/08/25 03:33:06;;;;;;;10.65;5.07;;;;;;;16.16;63.33;101640.06;5034991;28;20050;-62
2021/08/25 03:35:33;;;;;;;10.95;5.30;;;;;;;16.30;62.98;101633.16;5017289;28;20053;-62
2021/08/25 03:38:00;;;;;;;12.43;4.70;;;;;;;16.47;62.23;101635.97;5034804;28;20128;-69
2021/08/25 03:40:28;;;;;;;12.25;4.88;;;;;;;16.37;62.48;101636.25;5035204;28;20505;-69
2021/08/25 03:42:55;;;;;;;11.75;5.13;;;;;;;16.43;62.40;101631.34;5034842;28;20061;-62
2021/08/25 03:45:22;;;;;;;8.20;4.63;;;;;;;16.34;62.64;101636.91;5034944;28;20862;-62
2021/08/25 03:47:49;;;;;;;10.07;4.85;;;;;;;16.25;63.01;101643.66;5034939;28;20045;-62
2021/08/25 03:50:17;;;;;;;12.55;5.57;;;;;;;16.27;63.14;101638.56;5034974;28;20055;-68
2021/08/25 03:52:44;;;;;;;12.13;5.45;;;;;;;16.31;62.81;101645.09;5033340;28;20049;-61
2021/08/25 03:55:11;;;;;;;16.02;5.30;;;;;;;16.17;63.71;101642.50;5016702;28;20451;-62
2021/08/25 03:57:39;;;;;;;15.50;5.65;;;;;;;16.18;63.62;101644.13;5035097;28;20092;-62
2021/08/25 04:00:06;;;;;;;12.15;5.53;;;;;;;16.24;63.38;101633.66;5033079;28;20048;-69
2021/08/25 04:02:38;;;;;;;9.63;5.30;;;;;;;16.16;63.75;101628.94;5033554;28;20049;-62
2021/08/25 04:05:06;;;;;;;11.20;5.35;;;;;;;15.99;64.18;101634.53;5033051;28;20045;-61
2021/08/25 04:07:33;;;;;;;9.35;5.07;;;;;;;15.98;64.16;101641.22;5033292;28;20053;-62
2021/08/25 04:10:01;;;;;;;11.43;5.15;;;;;;;15.98;64.33;101632.88;5034680;28;20049;-61
2021/08/25 04:12:28;;;;;;;12.90;5.68;;;;;;;15.94;64.45;101643.00;5036626;28;20041;-61
2021/08/25 04:14:55;;;;;;;14.23;5.65;;;;;;;16.21;63.71;101637.94;5054412;28;20045;-67
2021/08/25 04:17:23;;;;;;;9.82;5.07;;;;;;;15.98;64.18;101632.88;5055893;28;20057;-69
2021/08/25 04:19:50;;;;;;;9.65;5.38;;;;;;;15.71;65.41;101629.25;5037908;28;20049;-68
2021/08/25 04:22:17;;;;;;;11.88;5.60;;;;;;;15.85;64.73;101637.44;5053169;28;20049;-67
2021/08/25 04:24:44;;;;;;;10.93;4.82;;;;;;;15.48;66.04;101626.97;5053681;28;20048;-62
2021/08/25 04:27:12;;;;;;;10.60;5.15;;;;;;;15.59;66.00;101637.44;5054129;28;20056;-62
2021/08/25 04:29:39;;;;;;;10.15;5.25;;;;;;;15.73;65.37;101635.31;5054085;28;20373;-69
2021/08/25 04:32:06;;;;;;;9.75;5.25;;;;;;;15.50;66.14;101630.22;5054421;28;20455;-62
2021/08/25 04:34:34;;;;;;;12.82;5.68;;;;;;;15.70;65.56;101640.72;5052123;28;20120;-62
2021/08/25 04:37:01;;;;;;;11.98;6.05;;;;;;;15.47;66.44;101637.25;5054315;28;20051;-69
2021/08/25 04:39:28;;;;;;;11.90;5.80;;;;;;;15.38;66.82;101633.59;5055404;28;20443;-68
2021/08/25 04:41:55;;;;;;;14.32;5.78;;;;;;;15.23;67.42;101638.78;5054213;28;20051;-70
2021/08/25 04:44:26;;;;;;;10.77;5.03;;;;;;;15.63;65.93;101646.75;5053488;28;20045;-62
2021/08/25 04:46:53;;;;;;;12.32;5.40;;;;;;;15.45;66.65;101636.75;5053237;28;20053;-62
2021/08/25 04:49:20;;;;;;;12.85;5.53;;;;;;;15.67;65.81;101644.94;5053559;28;20045;-70
2021/08/25 04:51:48;;;;;;;13.77;5.70;;;;;;;15.68;65.81;101648.53;5053796;28;20049;-68
2021/08/25 04:54:15;;;;;;;10.82;5.45;;;;;;;15.64;65.85;101637.25;5053264;28;20520;-62
2021/08/25 04:56:42;;;;;;;9.60;5.97;;;;;;;15.35;66.59;101644.53;5053452;28;20061;-69
2021/08/25 04:59:09;;;;;;;11.80;5.47;;;;;;;15.40;66.76;101644.41;5052104;28;20534;-70
2021/08/25 05:01:36;;;;;;;12.55;5.40;;;;;;;15.29;67.04;101643.84;5053693;28;20052;-61
2021/08/25 05:04:04;;;;;;;10.55;5.55;;;;;;;15.41;66.62;101635.75;5053211;28;20048;-69
2021/08/25 05:06:31;;;;;;;10.73;5.95;;;;;;;15.21;67.34;101639.09;5053095;28;20428;-62
2021/08/25 05:08:58;;;;;;;13.75;5.70;;;;;;;15.47;66.87;101637.25;5053255;28;20412;-63
2021/08/25 05:11:26;;;;;;;11.15;5.60;;;;;;;15.45;66.64;101638.69;5035640;28;20049;-63
2021/08/25 05:13:55;;;;;;;12.65;5.53;;;;;;;15.54;66.37;101634.81;5039758;28;20057;-63
2021/08/25 05:16:23;;;;;;;11.98;5.70;;;;;;;15.45;66.59;101639.53;5033367;28;20057;-61
2021/08/25 05:18:50;;;;;;;11.73;5.43;;;;;;;15.42;66.84;101637.41;5033553;28;20046;-62
2021/08/25 05:21:17;;;;;;;11.80;5.72;;;;;;;15.56;66.37;101637.25;5032287;28;20045;-63
2021/08/25 05:23:45;;;;;;;11.02;5.82;;;;;;;15.66;65.96;101632.22;5033132;28;20057;-63
2021/08/25 05:26:12;;;;;;;10.93;5.60;;;;;;;15.58;66.10;101637.75;5032153;28;20539;-63
2021/08/25 05:28:39;;;;;;;11.50;5.65;;;;;;;15.53;66.49;101635.13;5033643;28;20050;-66
2021/08/25 05:31:06;;;;;;;13.20;5.45;;;;;;;15.83;65.81;101638.94;5033914;28;20045;-62
2021/08/25 05:33:34;;;;;;;15.10;5.95;;;;;;;15.76;65.58;101636.59;5033170;28;20034;-63
2021/08/25 05:36:01;;;;;;;11.40;5.47;;;;;;;15.84;65.25;101638.59;5015533;28;20606;-62
2021/08/25 05:38:28;;;;;;;14.48;5.40;;;;;;;15.81;65.02;101647.59;5031911;28;20053;-62
2021/08/25 05:40:56;;;;;;;15.30;6.07;;;;;;;15.62;65.85;101639.53;5033760;28;20060;-61
2021/08/25 05:43:23;;;;;;;10.18;5.72;;;;;;;15.59;66.46;101645.75;5032187;28;20639;-62
2021/08/25 05:45:50;;;;;;;15.50;5.88;;;;;;;15.52;66.58;101650.97;5033001;28;20619;-62
2021/08/25 05:48:17;;;;;;;14.75;6.80;;;;;;;15.53;66.62;101657.34;5031917;28;20049;-61
2021/08/25 05:50:44;;;;;;;13.27;7.25;;;;;;;15.86;65.35;101643.81;5033184;28;20044;-62
2021/08/25 05:53:12;;;;;;;13.18;6.18;;;;;;;15.96;64.88;101647.09;5032892;28;20357;-62
2021/08/25 05:55:39;;;;;;;16.48;6.55;;;;;;;15.53;66.33;101652.59;5031677;28;20489;-63
2021/08/25 05:58:06;;;;;;;11.40;6.78;;;;;;;15.74;65.74;101647.25;5033078;28;20569;-64
2021/08/25 06:00:34;;;;;;;19.75;7.75;;;;;;;15.88;65.14;101647.09;5036580;28;20061;-61
2021/08/25 06:03:02;;;;;;;19.33;8.52;;;;;;;15.58;65.76;101652.47;5035023;28;20088;-61
2021/08/25 06:05:30;;;;;;;14.77;7.43;;;;;;;15.39;66.68;101649.13;5036454;28;20041;-62
2021/08/25 06:07:57;;;;;;;12.60;7.63;;;;;;;15.27;67.57;101664.75;5036465;28;20060;-62
2021/08/25 06:10:24;;;;;;;16.38;8.20;;;;;;;15.45;66.85;101656.19;5036721;28;20052;-61
2021/08/25 06:12:52;;;;;;;16.25;9.00;;;;;;;15.46;66.84;101655.03;5041852;28;20060;-61
2021/08/25 06:15:19;;;;;;;18.33;8.32;;;;;;;15.52;66.37;101659.31;5056373;28;20049;-62
2021/08/25 06:17:47;;;;;;;13.65;7.32;;;;;;;15.48;66.55;101654.72;5056526;28;20052;-63
2021/08/25 06:20:14;;;;;;;14.15;7.15;;;;;;;15.59;66.22;101656.88;5056334;28;20052;-62
2021/08/25 06:22:42;;;;;;;15.00;6.88;;;;;;;15.83;65.50;101663.94;5054505;28;20056;-70
2021/08/25 06:25:09;;;;;;;11.02;6.57;;;;;;;15.75;65.92;101658.03;5056335;28;20052;-70
2021/08/25 06:27:37;;;;;;;13.98;6.50;;;;;;;15.84;65.21;101654.44;5055329;28;20049;-69
2021/08/25 06:30:05;;;;;;;11.95;6.43;;;;;;;15.68;65.76;101648.53;5056776;28;20068;-69
2021/08/25 06:32:33;;;;;;;14.63;6.22;;;;;;;15.68;65.64;101648.53;5056792;28;20116;-69
2021/08/25 06:35:00;;;;;;;13.45;6.38;;;;;;;15.57;66.03;101653.59;5054768;28;20060;-68
2021/08/25 06:37:27;;;;;;;15.40;6.25;;;;;;;15.61;66.14;101651.81;5056148;28;20045;-70
2021/08/25 06:39:54;;;;;;;11.43;5.95;;;;;;;15.74;65.49;101652.81;5055262;28;20052;-68
2021/08/25 06:42:22;;;;;;;12.30;6.15;;;;;;;15.68;65.43;101652.16;5055152;28;20045;-70
2021/08/25 06:44:49;;;;;;;12.55;6.63;;;;;;;15.64;65.89;101653.94;5056288;28;20053;-69
2021/08/25 06:47:16;;;;;;;14.73;6.28;;;;;;;15.74;65.54;101652.81;5056279;28;20451;-69
2021/08/25 06:49:43;;;;;;;15.90;6.53;;;;;;;15.88;65.22;101653.47;5056260;28;20045;-69
2021/08/25 06:52:10;;;;;;;11.45;6.20;;;;;;;15.98;64.72;101657.88;5056291;28;20048;-70
2021/08/25 06:54:38;;;;;;;18.13;6.70;;;;;;;16.04;64.41;101662.13;5054966;28;20048;-69
2021/08/25 06:57:05;;;;;;;16.42;6.28;;;;;;;15.81;65.05;101661.47;5056661;28;20053;-69
2021/08/25 06:59:33;;;;;;;24.98;12.93;;;;;;;15.85;65.15;101664.44;5056113;28;20061;-69
2021/08/25 07:02:01;;;;;;;16.70;7.60;;;;;;;15.97;64.57;101667.38;5056615;28;20144;-69
2021/08/25 07:04:29;;;;;;;11.13;6.22;;;;;;;15.96;64.59;101665.72;5055625;28;20052;-63
2021/08/25 07:06:56;;;;;;;18.90;6.63;;;;;;;15.84;64.81;101671.94;5055781;28;20056;-61
2021/08/25 07:09:23;;;;;;;13.40;6.15;;;;;;;15.99;64.46;101682.56;5053966;28;20053;-63
2021/08/25 07:11:51;;;;;;;11.75;6.50;;;;;;;15.97;64.36;101673.72;5055929;28;20142;-62
2021/08/25 07:14:18;;;;;;;14.52;5.93;;;;;;;16.15;64.14;101672.59;5038292;28;20567;-62
2021/08/25 07:16:45;;;;;;;17.50;6.80;;;;;;;16.25;63.75;101666.69;5035684;28;20053;-64
2021/08/25 07:19:12;;;;;;;16.13;6.00;;;;;;;16.39;63.24;101667.34;5035785;28;20132;-62
2021/08/25 07:21:40;;;;;;;14.20;6.70;;;;;;;16.20;63.63;101666.88;5035286;28;20649;-62
2021/08/25 07:24:07;;;;;;;12.13;6.38;;;;;;;16.42;63.00;101668.66;5033694;28;20053;-61
2021/08/25 07:26:34;;;;;;;15.32;6.40;;;;;;;16.42;63.17;101663.09;5035249;28;20061;-61
2021/08/25 07:29:02;;;;;;;16.80;6.00;;;;;;;16.30;63.09;101662.94;5035148;28;20377;-62
2021/08/25 07:31:29;;;;;;;15.90;6.80;;;;;;;16.57;62.85;101657.03;5035104;28;20049;-62
2021/08/25 07:33:56;;;;;;;13.35;6.50;;;;;;;16.81;61.66;101663.66;5033833;28;20057;-62
2021/08/25 07:36:24;;;;;;;17.52;6.15;;;;;;;16.74;61.56;101662.53;5017080;28;20053;-62
2021/08/25 07:38:51;;;;;;;14.90;6.20;;;;;;;16.56;62.63;101655.41;5033118;28;20112;-62
2021/08/25 07:41:19;;;;;;;15.80;6.03;;;;;;;16.84;61.74;101659.44;5034886;28;20045;-62
2021/08/25 07:43:46;;;;;;;15.45;5.47;;;;;;;16.71;61.77;101652.09;5034958;28;20072;-61
2021/08/25 07:46:13;;;;;;;12.60;5.95;;;;;;;17.01;61.29;101641.81;5034600;28;20058;-61
2021/08/25 07:48:43;;;;;;;;;;;;;;;17.03;60.70;101662.63;5035482;28;20045;-68
2021/08/25 07:51:11;;;;;;;13.23;7.18;;;;;;;17.00;61.12;101643.78;5033470;28;19928;-70
2021/08/25 07:53:38;;;;;;;17.80;5.88;;;;;;;16.82;61.54;101648.59;5032935;28;20128;-70
2021/08/25 07:56:06;;;;;;;15.77;6.32;;;;;;;16.81;61.46;101649.75;5034456;28;20049;-70
2021/08/25 07:58:33;;;;;;;13.27;5.78;;;;;;;17.08;60.92;101637.38;5034738;28;20045;-71
2021/08/25 08:01:11;;;;;;;15.00;5.93;;;;;;;17.25;60.64;101630.91;5034957;28;20053;-69
2021/08/25 08:03:40;;;;;;;17.02;5.93;;;;;;;17.37;60.10;101625.41;5034655;28;20064;-70
2021/08/25 08:06:08;;;;;;;16.63;5.55;;;;;;;17.64;59.23;101639.69;5034457;28;20056;-69
2021/08/25 08:08:36;;;;;;;18.75;6.38;;;;;;;17.36;59.96;101637.72;5034394;28;20045;-71
2021/08/25 08:11:03;;;;;;;12.98;5.75;;;;;;;17.49;59.54;101626.34;5032838;28;20049;-70
2021/08/25 08:13:30;;;;;;;15.52;6.43;;;;;;;17.26;60.22;101636.13;5043977;28;20752;-69
2021/08/25 08:15:57;;;;;;;16.65;6.10;;;;;;;17.50;59.60;101629.97;5035996;28;20057;-70
2021/08/25 08:18:33;;;;;;;12.40;5.43;;;;;;;17.74;59.03;101627.34;5054307;28;20049;-69
2021/08/25 08:21:01;;;;;;;12.90;5.65;;;;;;;17.84;58.30;101619.38;5053209;28;20045;-70
2021/08/25 08:23:28;;;;;;;15.45;5.22;;;;;;;17.91;58.15;101618.81;5053711;28;20056;-69
2021/08/25 08:25:56;;;;;;;16.52;6.05;;;;;;;18.04;57.76;101617.75;5053867;28;20049;-70
2021/08/25 08:28:24;;;;;;;12.73;5.65;;;;;;;18.25;57.42;101612.94;5054477;28;20538;-69
2021/08/25 08:30:51;;;;;;;18.73;9.45;;;;;;;18.33;57.39;101619.59;5054480;28;20056;-71
2021/08/25 08:33:18;;;;;;;16.55;5.93;;;;;;;18.16;57.81;101612.22;5054292;28;20049;-71
2021/08/25 08:35:45;;;;;;;15.15;6.15;;;;;;;18.10;57.72;101610.00;5053537;28;20066;-69
2021/08/25 08:38:13;;;;;;;13.00;6.20;;;;;;;18.26;57.28;101617.34;5052671;28;20059;-70
2021/08/25 08:40:40;;;;;;;14.75;6.65;;;;;;;18.22;57.43;101618.41;5054068;28;20057;-69
2021/08/25 08:43:09;;;;;;;12.30;6.20;;;;;;;18.33;57.15;101620.41;5053885;28;20041;-69
2021/08/25 08:45:39;;;;;;;12.63;5.70;;;;;;;18.21;57.48;101613.97;5053790;28;20052;-69
2021/08/25 08:48:08;;;;;;;10.87;5.10;;;;;;;18.41;56.95;101613.16;5053911;28;20064;-70
2021/08/25 08:50:36;;;;;;;11.60;5.63;;;;;;;18.55;56.32;101613.66;5019465;28;20757;-69
2021/08/25 08:53:05;;;;;;;12.57;6.30;;;;;;;18.77;55.87;101622.41;5053751;28;20068;-70
2021/08/25 08:55:32;;;;;;;15.80;5.90;;;;;;;18.94;54.99;101613.00;5054164;28;20044;-71
2021/08/25 08:58:00;;;;;;;10.95;6.03;;;;;;;18.83;54.91;101609.03;5054101;28;20048;-70
2021/08/25 09:00:27;;;;;;;14.93;6.40;;;;;;;18.97;54.84;101606.72;5053933;28;20049;-71
2021/08/25 09:02:54;;;;;;;13.55;6.43;;;;;;;19.04;54.48;101604.16;5053885;28;20041;-70
2021/08/25 09:05:26;;;;;;;11.40;5.57;;;;;;;18.91;54.60;101622.09;5053575;28;20049;-70
2021/08/25 09:07:58;;;;;;;14.38;6.05;;;;;;;18.90;54.92;101606.47;5052073;28;20084;-71
2021/08/25 09:10:30;;;;;;;13.15;5.90;;;;;;;18.94;54.03;101604.63;5035984;28;20051;-73
2021/08/25 09:13:03;;;;;;;15.75;6.25;;;;;;;18.98;53.60;101611.16;5047502;28;20049;-71
2021/08/25 09:15:33;;;;;;;17.63;5.70;;;;;;;19.03;53.78;101608.94;5033684;28;20053;-71
2021/08/25 09:18:04;;;;;;;9.60;5.40;;;;;;;19.33;53.03;101603.16;5032365;28;20057;-71
2021/08/25 09:20:34;;;;;;;17.30;5.88;;;;;;;19.29;52.93;101603.00;5034067;28;20501;-70
2021/08/25 09:23:19;;;;;;;14.93;5.28;;;;;;;19.13;53.44;101606.81;5033565;28;20037;-71
2021/08/25 09:25:51;;;;;;;8.40;5.43;;;;;;;19.26;53.56;101586.94;5033616;28;20608;-71
2021/08/25 09:28:26;;;;;;;10.55;5.25;;;;;;;19.36;52.88;101596.84;5032276;28;20049;-71
2021/08/25 09:31:05;;;;;;;8.13;4.80;;;;;;;19.39;52.34;101604.50;5033648;28;20413;-71
2021/08/25 09:33:37;;;;;;;8.57;5.03;;;;;;;19.21;53.30;101592.78;5037083;28;20312;-70
2021/08/25 09:36:07;;;;;;;11.38;7.03;;;;;;;19.15;53.21;101605.31;5037168;28;20064;-70
2021/08/25 09:38:36;;;;;;;10.30;5.23;;;;;;;19.09;53.22;101595.53;5037218;28;20124;-71
2021/08/25 09:41:06;;;;;;;10.60;5.43;;;;;;;19.35;52.90;101603.63;5036041;28;20057;-69
2021/08/25 09:43:42;;;;;;;13.60;5.13;;;;;;;19.48;52.88;101603.25;5036475;28;20053;-71
2021/08/25 09:46:24;;;;;;;10.15;4.70;;;;;;;19.57;52.47;101603.91;5038489;28;20053;-71
2021/08/25 09:48:57;;;;;;;11.05;5.30;;;;;;;19.56;52.48;101599.47;5036972;28;20057;-71
2021/08/25 09:51:45;;;;;;;11.18;5.05;;;;;;;19.51;52.57;101585.75;5038006;28;20072;-70
2021/08/25 09:54:15;;;;;;;9.90;5.10;;;;;;;19.41;52.46;101580.66;5037408;28;20046;-70
2021/08/25 09:56:43;;;;;;;;;;;;;;;19.50;52.33;101580.53;5037060;28;20049;-70
2021/08/25 09:59:12;;;;;;;13.13;5.28;;;;;;;19.59;51.83;101578.41;5035804;28;19944;-72
2021/08/25 10:01:41;;;;;;;10.77;5.00;;;;;;;19.65;51.41;101575.00;5019683;28;20536;-71
2021/08/25 10:04:11;;;;;;;10.27;5.00;;;;;;;19.82;51.16;101594.28;5035979;28;20052;-71
2021/08/25 10:06:49;;;;;;;9.75;4.68;;;;;;;19.76;50.80;101573.34;5035437;28;20049;-70
2021/08/25 10:09:17;;;;;;;8.75;4.70;;;;;;;19.92;50.10;101567.81;5036784;28;20057;-71
2021/08/25 10:11:53;;;;;;;10.52;4.78;;;;;;;20.01;49.70;101572.06;5036971;28;20049;-70
2021/08/25 10:14:20;;;;;;;10.32;4.35;;;;;;;19.98;49.03;101571.97;5054227;28;20053;-71
2021/08/25 10:16:49;;;;;;;9.55;4.88;;;;;;;20.11;48.87;101563.19;5054926;28;20053;-72
2021/08/25 10:19:29;;;;;;;9.80;4.80;;;;;;;20.10;49.24;101563.56;5055172;28;20047;-71
2021/08/25 10:22:15;;;;;;;13.73;5.20;;;;;;;20.13;49.14;101560.84;5054922;28;20052;-70
2021/08/25 10:24:57;;;;;;;8.65;4.43;;;;;;;20.10;48.86;101563.56;5056383;28;20488;-72
2021/08/25 10:27:25;;;;;;;11.30;4.78;;;;;;;20.17;48.63;101555.41;5056347;28;20052;-70
2021/08/25 10:30:04;;;;;;;11.02;5.05;;;;;;;20.29;48.80;101540.50;5056472;28;20056;-71
2021/08/25 10:32:51;;;;;;;9.45;4.82;;;;;;;20.23;48.27;101547.53;5055320;28;20055;-70
2021/08/25 10:35:20;;;;;;;8.13;4.57;;;;;;;20.36;48.09;101549.09;5055996;28;20055;-71
2021/08/25 10:37:48;;;;;;;7.65;4.40;;;;;;;20.25;48.32;101546.00;5037501;28;20064;-71
2021/08/25 10:40:18;;;;;;;9.80;4.75;;;;;;;20.36;48.35;101546.31;5056718;28;20404;-71
2021/08/25 10:42:46;;;;;;;;;;;;;;;20.44;47.62;101550.91;5055878;28;20439;-72
2021/08/25 10:45:16;;;;;;;11.95;5.00;;;;;;;20.37;47.28;101539.53;5055523;28;19920;-70
2021/08/25 10:48:00;;;;;;;10.07;4.60;;;;;;;20.41;47.23;101543.22;5054659;28;20049;-71
2021/08/25 10:50:48;;;;;;;7.95;4.47;;;;;;;20.52;47.22;101538.75;5055772;28;20057;-70
2021/08/25 10:53:28;;;;;;;8.43;4.60;;;;;;;20.45;47.19;101538.56;5055706;28;20052;-70
2021/08/25 10:56:18;;;;;;;11.85;4.70;;;;;;;20.41;47.46;101526.44;5056589;28;20045;-71
2021/08/25 10:58:51;;;;;;;8.32;4.60;;;;;;;20.47;47.69;101525.00;5056466;28;20060;-71
2021/08/25 11:01:20;;;;;;;6.72;4.18;;;;;;;20.65;47.18;101520.66;5056117;28;20052;-71
2021/08/25 11:03:49;;;;;;;10.00;4.97;;;;;;;20.77;45.60;101518.59;5055171;28;20053;-72
2021/08/25 11:06:36;;;;;;;7.25;4.38;;;;;;;20.84;45.23;101506.72;5055371;28;20049;-71
2021/08/25 11:09:10;;;;;;;10.20;4.82;;;;;;;20.90;45.41;101505.28;5055739;28;20049;-71
2021/08/25 11:11:37;;;;;;;11.05;5.22;;;;;;;21.11;45.11;101503.03;5055245;28;20056;-63
2021/08/25 11:14:05;;;;;;;11.05;4.43;;;;;;;20.97;45.11;101511.84;5038627;28;20045;-63
2021/08/25 11:16:32;;;;;;;11.15;4.55;;;;;;;20.99;45.33;101512.34;5035635;28;20049;-71
2021/08/25 11:18:59;;;;;;;8.20;4.30;;;;;;;20.99;44.94;101503.94;5035658;28;20046;-72
2021/08/25 11:21:27;;;;;;;8.55;4.38;;;;;;;21.01;45.13;101504.38;5017385;28;20049;-72
2021/08/25 11:23:56;;;;;;;8.93;4.70;;;;;;;20.97;45.60;101495.03;5033320;28;20049;-64
2021/08/25 11:26:23;;;;;;;7.57;4.70;;;;;;;21.06;44.63;101497.72;5033793;28;20069;-71